Time;durP1;ratioP1;P1;durP2;ratioP2;P2;SDS_P1;SDS_P2;PMS_P1;PMS_P2;Temp;Humidity;BMP_temperature;BMP_pressure;BME280_temperature;BME280_humidity;BME280_pressure;Samples;Min_cycle;Max_cycle;Signal;HPM_P1;HPM_P2
2021/08/11 00:00:39;;;;;;;4.30;3.53;;;18.70;99.90;;;;;;4142538;28;20088;-74
2021/08/11 00:02:40;;;;;;;4.97;3.55;;;18.70;99.90;;;;;;4140084;28;20042;-74
2021/08/11 00:04:40;;;;;;;6.32;3.83;;;18.60;99.90;;;;;;4139486;28;20057;-73
2021/08/11 00:06:41;;;;;;;4.72;3.90;;;18.60;99.90;;;;;;4141158;28;20080;-73
2021/08/11 00:08:45;;;;;;;5.60;4.10;;;18.60;99.90;;;;;;4141472;28;20049;-74
2021/08/11 00:10:45;;;;;;;5.88;3.67;;;18.60;99.90;;;;;;4140754;28;20042;-74
2021/08/11 00:12:46;;;;;;;7.50;4.20;;;18.60;99.90;;;;;;4158232;28;20476;-74
2021/08/11 00:14:47;;;;;;;5.93;4.30;;;18.60;99.90;;;;;;4165083;28;20485;-73
2021/08/11 00:16:47;;;;;;;4.82;3.95;;;18.60;99.90;;;;;;4158583;28;20034;-74
2021/08/11 00:18:48;;;;;;;6.00;4.15;;;18.60;99.90;;;;;;4162918;28;20037;-73
2021/08/11 00:20:50;;;;;;;6.05;4.32;;;18.60;99.90;;;;;;4160795;28;20148;-73
2021/08/11 00:22:52;;;;;;;4.73;3.80;;;18.50;99.90;;;;;;4160732;28;20521;-74
2021/08/11 00:24:52;;;;;;;5.97;4.10;;;18.60;99.90;;;;;;4162779;28;20588;-73
2021/08/11 00:26:53;;;;;;;4.70;3.65;;;18.60;99.90;;;;;;4162276;28;20041;-73
2021/08/11 00:28:53;;;;;;;6.28;4.15;;;18.50;99.90;;;;;;4162476;28;20053;-73
2021/08/11 00:30:54;;;;;;;4.82;3.92;;;18.50;99.90;;;;;;4177287;28;20513;-74
2021/08/11 00:32:55;;;;;;;5.13;3.78;;;18.50;99.90;;;;;;4162339;28;20069;-73
2021/08/11 00:34:55;;;;;;;4.55;3.60;;;18.50;99.90;;;;;;4162278;28;20036;-73
2021/08/11 00:36:56;;;;;;;4.82;3.55;;;18.50;99.90;;;;;;4160687;28;20041;-73
2021/08/11 00:38:56;;;;;;;5.20;4.03;;;18.50;99.90;;;;;;4162401;28;20038;-74
2021/08/11 00:40:57;;;;;;;4.25;3.38;;;18.50;99.90;;;;;;4160749;28;20532;-74
2021/08/11 00:42:58;;;;;;;4.43;3.63;;;18.40;99.90;;;;;;4162123;28;20030;-74
2021/08/11 00:45:03;;;;;;;4.05;3.03;;;18.40;99.90;;;;;;4161680;28;20144;-73
2021/08/11 00:47:04;;;;;;;3.88;2.72;;;18.30;99.90;;;;;;4160637;28;20044;-74
2021/08/11 00:49:05;;;;;;;3.78;2.50;;;18.30;99.90;;;;;;4157560;28;20124;-73
2021/08/11 00:51:06;;;;;;;3.10;2.50;;;18.30;99.90;;;;;;4160259;28;20044;-74
2021/08/11 00:53:08;;;;;;;3.47;2.90;;;18.30;99.90;;;;;;4161844;28;20040;-73
2021/08/11 00:55:09;;;;;;;2.73;2.33;;;18.30;99.90;;;;;;4161517;28;20042;-73
2021/08/11 00:57:12;;;;;;;3.10;2.35;;;18.20;99.90;;;;;;4162094;28;20910;-73
2021/08/11 00:59:14;;;;;;;;;;;18.20;99.90;;;;;;4160579;28;20707;-73
2021/08/11 01:01:14;;;;;;;3.05;2.55;;;18.20;99.90;;;;;;4185320;28;19915;-74
2021/08/11 01:03:18;;;;;;;2.80;2.40;;;18.20;99.90;;;;;;4161805;28;20022;-73
2021/08/11 01:05:19;;;;;;;3.95;2.88;;;18.10;99.90;;;;;;4158983;28;20041;-74
2021/08/11 01:07:21;;;;;;;3.50;2.65;;;18.10;99.90;;;;;;4161724;28;20730;-73
2021/08/11 01:09:22;;;;;;;3.93;2.77;;;18.10;99.90;;;;;;4167916;28;20032;-73
2021/08/11 01:11:25;;;;;;;3.30;2.78;;;18.10;99.90;;;;;;4161141;28;20025;-73
2021/08/11 01:13:26;;;;;;;2.05;1.85;;;18.00;99.90;;;;;;4160326;28;20041;-73
2021/08/11 01:15:27;;;;;;;2.20;2.00;;;18.00;99.90;;;;;;4161667;28;20028;-73
2021/08/11 01:17:28;;;;;;;2.50;2.00;;;18.00;99.90;;;;;;4167368;28;20052;-73
2021/08/11 01:19:30;;;;;;;2.70;2.20;;;18.00;99.90;;;;;;4161538;28;20030;-74
2021/08/11 01:21:34;;;;;;;3.13;2.83;;;18.00;99.90;;;;;;4159695;28;20135;-73
2021/08/11 01:23:58;;;;;;;2.30;2.08;;;17.90;99.90;;;;;;4165952;28;20032;-74
2021/08/11 01:26:09;;;;;;;2.60;2.40;;;17.90;99.90;;;;;;4159838;28;20030;-73
2021/08/11 01:28:53;;;;;;;3.13;2.83;;;17.90;99.90;;;;;;4159886;28;20083;-73
2021/08/11 01:31:23;;;;;;;3.58;3.25;;;17.90;99.90;;;;;;4159087;28;20520;-73
2021/08/11 01:33:46;;;;;;;4.82;3.63;;;17.90;99.90;;;;;;4145559;28;20030;-73
2021/08/11 01:36:43;;;;;;;5.03;3.70;;;17.90;99.90;;;;;;4160523;28;20037;-73
2021/08/11 01:38:50;;;;;;;6.22;4.57;;;17.90;99.90;;;;;;4138814;28;20137;-73
2021/08/11 01:41:03;;;;;;;8.00;5.18;;;17.80;99.90;;;;;;4141988;28;20097;-73
2021/08/11 01:43:05;;;;;;;9.23;4.80;;;17.90;99.90;;;;;;4146599;28;20109;-73
2021/08/11 01:45:12;;;;;;;;;;;17.90;99.90;;;;;;4160793;28;20033;-73
2021/08/11 01:47:14;;;;;;;8.45;5.65;;;17.80;99.90;;;;;;4160592;28;19920;-73
2021/08/11 01:49:16;;;;;;;6.95;5.43;;;17.80;99.90;;;;;;4156458;28;20076;-73
2021/08/11 01:51:18;;;;;;;9.27;6.80;;;17.80;99.90;;;;;;4161083;28;20021;-73
2021/08/11 01:53:24;;;;;;;9.88;6.75;;;17.80;99.90;;;;;;4161125;28;20117;-73
2021/08/11 01:55:25;;;;;;;9.90;6.90;;;17.80;99.90;;;;;;4160568;28;20030;-73
2021/08/11 01:57:25;;;;;;;9.30;6.43;;;17.80;99.90;;;;;;4160557;28;20570;-73
2021/08/11 01:59:26;;;;;;;10.27;7.00;;;17.90;99.90;;;;;;4161067;28;20490;-73
2021/08/11 02:01:27;;;;;;;11.10;7.22;;;17.90;99.90;;;;;;4158932;28;20037;-73
2021/08/11 02:03:27;;;;;;;10.63;7.50;;;17.90;99.90;;;;;;4160776;28;20091;-74
2021/08/11 02:05:30;;;;;;;10.73;6.97;;;17.80;99.90;;;;;;4160184;28;20381;-74
2021/08/11 02:07:32;;;;;;;11.98;7.18;;;17.90;99.90;;;;;;4158600;28;20076;-74
2021/08/11 02:09:35;;;;;;;11.40;7.55;;;17.90;99.90;;;;;;4162112;28;20137;-73
2021/08/11 02:11:40;;;;;;;9.60;5.82;;;17.90;99.90;;;;;;4158948;28;20049;-73
2021/08/11 02:13:41;;;;;;;8.00;6.32;;;17.80;99.90;;;;;;4158807;28;20025;-74
2021/08/11 02:15:42;;;;;;;8.70;6.55;;;17.80;99.90;;;;;;4160575;28;20129;-73
2021/08/11 02:17:42;;;;;;;7.63;5.40;;;17.80;99.90;;;;;;4159275;28;20030;-74
2021/08/11 02:19:43;;;;;;;5.78;4.75;;;17.80;99.90;;;;;;4158918;28;20061;-73
2021/08/11 02:21:44;;;;;;;5.95;4.95;;;17.80;99.90;;;;;;4160146;28;20544;-73
2021/08/11 02:23:45;;;;;;;7.55;5.20;;;17.80;99.90;;;;;;4160351;28;20160;-73
2021/08/11 02:25:54;;;;;;;7.53;5.18;;;17.80;99.90;;;;;;4158727;28;20042;-73
2021/08/11 02:28:02;;;;;;;6.95;5.10;;;17.90;99.90;;;;;;4158961;28;20025;-73
2021/08/11 02:30:13;;;;;;;6.55;5.18;;;17.90;99.90;;;;;;4159287;28;20040;-73
2021/08/11 02:32:20;;;;;;;7.07;5.85;;;17.90;99.90;;;;;;4152090;28;20025;-74
2021/08/11 02:34:43;;;;;;;6.68;5.22;;;17.90;99.90;;;;;;4160488;28;20718;-73
2021/08/11 02:36:55;;;;;;;6.80;5.50;;;17.90;99.90;;;;;;4161727;28;20025;-73
2021/08/11 02:39:07;;;;;;;7.03;5.57;;;17.90;99.90;;;;;;4160096;28;20033;-73
2021/08/11 02:41:17;;;;;;;7.43;5.47;;;17.90;99.90;;;;;;4157949;28;20025;-73
2021/08/11 02:43:24;;;;;;;9.07;5.57;;;17.90;99.90;;;;;;4160105;28;20034;-74
2021/08/11 02:45:26;;;;;;;7.07;5.47;;;18.00;99.90;;;;;;4158954;28;20665;-73
2021/08/11 02:47:27;;;;;;;;;;;18.00;99.90;;;;;;4158142;28;20038;-73
2021/08/11 02:49:30;;;;;;;7.57;5.80;;;18.00;99.90;;;;;;4190407;28;19956;-74
2021/08/11 02:51:32;;;;;;;8.18;5.45;;;17.90;99.90;;;;;;4160591;28;20022;-73
2021/08/11 02:53:33;;;;;;;;;;;17.90;99.90;;;;;;4159799;28;20025;-74
2021/08/11 02:55:37;;;;;;;6.45;3.30;;;17.90;99.90;;;;;;4158265;28;20345;-73
2021/08/11 02:57:38;;;;;;;4.72;3.80;;;17.80;99.90;;;;;;4157993;28;20029;-73
2021/08/11 02:59:40;;;;;;;4.65;3.75;;;17.70;99.90;;;;;;4160096;28;20041;-73
2021/08/11 03:01:44;;;;;;;4.18;3.67;;;17.70;99.90;;;;;;4158985;28;20033;-73
2021/08/11 03:03:45;;;;;;;4.18;3.45;;;17.80;99.90;;;;;;4161134;28;20042;-73
2021/08/11 03:05:46;;;;;;;3.67;3.28;;;17.70;99.90;;;;;;4159889;28;20162;-73
2021/08/11 03:07:48;;;;;;;3.42;3.13;;;17.60;99.90;;;;;;4143549;28;20087;-73
2021/08/11 03:09:49;;;;;;;4.47;3.83;;;17.60;99.90;;;;;;4141746;28;20395;-73
2021/08/11 03:11:50;;;;;;;5.15;3.97;;;17.70;99.90;;;;;;4143491;28;20478;-73
2021/08/11 03:13:51;;;;;;;4.32;3.75;;;17.60;99.90;;;;;;4135535;28;20702;-73
2021/08/11 03:15:52;;;;;;;4.88;4.35;;;17.60;99.90;;;;;;4141602;28;20066;-74
2021/08/11 03:17:53;;;;;;;4.25;3.85;;;17.60;99.90;;;;;;4140104;28;20029;-73
2021/08/11 03:19:54;;;;;;;5.03;3.92;;;17.60;99.90;;;;;;4143338;28;20676;-73
2021/08/11 03:21:55;;;;;;;4.88;4.35;;;17.60;99.90;;;;;;4132955;28;20057;-73
2021/08/11 03:23:55;;;;;;;4.35;3.60;;;17.70;99.90;;;;;;4135657;28;20031;-74
2021/08/11 03:25:56;;;;;;;4.75;4.20;;;17.70;99.90;;;;;;4142871;28;20042;-73
2021/08/11 03:27:56;;;;;;;6.15;4.80;;;17.60;99.90;;;;;;4135394;28;20026;-73
2021/08/11 03:29:57;;;;;;;5.50;4.53;;;17.60;99.90;;;;;;4135246;28;20139;-73
2021/08/11 03:31:58;;;;;;;5.90;4.88;;;17.60;99.90;;;;;;4131216;28;20414;-73
2021/08/11 03:33:58;;;;;;;6.55;5.15;;;17.70;99.90;;;;;;4138238;28;20245;-73
2021/08/11 03:35:59;;;;;;;7.10;5.28;;;17.70;99.90;;;;;;4141942;28;20045;-73
2021/08/11 03:38:00;;;;;;;7.40;5.35;;;17.70;99.90;;;;;;4142904;28;20038;-73
2021/08/11 03:40:00;;;;;;;6.28;5.05;;;17.70;99.90;;;;;;4135471;28;20709;-74
2021/08/11 03:42:01;;;;;;;7.10;5.50;;;17.70;99.90;;;;;;4134733;28;20049;-74
2021/08/11 03:44:02;;;;;;;6.85;5.68;;;17.80;99.90;;;;;;4140724;28;20083;-73
2021/08/11 03:46:02;;;;;;;7.60;5.88;;;17.80;99.90;;;;;;4133193;28;20478;-73
2021/08/11 03:48:03;;;;;;;7.65;5.55;;;17.70;99.90;;;;;;4136543;28;20093;-73
2021/08/11 03:50:04;;;;;;;7.60;5.70;;;17.70;99.90;;;;;;4133821;28;20125;-73
2021/08/11 03:52:05;;;;;;;6.25;5.57;;;17.70;99.90;;;;;;4135359;28;20712;-74
2021/08/11 03:54:06;;;;;;;7.70;5.38;;;17.70;99.90;;;;;;4136267;28;20460;-73
2021/08/11 03:56:07;;;;;;;7.63;5.65;;;17.70;99.90;;;;;;4142470;28;20096;-73
2021/08/11 03:58:07;;;;;;;6.97;5.65;;;17.60;99.90;;;;;;4127452;28;20031;-73
2021/08/11 04:00:09;;;;;;;7.43;6.07;;;17.60;99.90;;;;;;4132326;28;20409;-73
2021/08/11 04:02:09;;;;;;;8.55;6.68;;;17.60;99.90;;;;;;4116493;28;20039;-73
2021/08/11 04:04:10;;;;;;;8.95;6.75;;;17.60;99.90;;;;;;4128845;28;20491;-73
2021/08/11 04:06:10;;;;;;;8.85;6.93;;;17.60;99.90;;;;;;4142032;28;20026;-73
2021/08/11 04:08:11;;;;;;;8.15;6.45;;;17.60;99.90;;;;;;4132935;28;20070;-73
2021/08/11 04:10:12;;;;;;;7.38;6.13;;;17.60;99.90;;;;;;4142836;28;20045;-73
2021/08/11 04:12:13;;;;;;;12.60;7.82;;;17.60;99.90;;;;;;4141010;28;20525;-73
2021/08/11 04:14:13;;;;;;;8.70;7.03;;;17.60;99.90;;;;;;4134990;28;20058;-73
2021/08/11 04:16:14;;;;;;;11.05;7.53;;;17.60;99.90;;;;;;4134862;28;20026;-73
2021/08/11 04:18:15;;;;;;;9.30;7.45;;;17.60;99.90;;;;;;4142287;28;20041;-73
2021/08/11 04:20:16;;;;;;;9.27;6.75;;;17.60;99.90;;;;;;4142505;28;20049;-73
2021/08/11 04:22:17;;;;;;;9.02;7.03;;;17.60;99.90;;;;;;4141900;28;20034;-73
2021/08/11 04:24:17;;;;;;;10.18;7.20;;;17.60;99.90;;;;;;4136208;28;20031;-73
2021/08/11 04:26:18;;;;;;;11.38;8.40;;;17.70;99.90;;;;;;4139926;28;20125;-74
2021/08/11 04:28:19;;;;;;;10.98;7.45;;;17.70;99.90;;;;;;4141688;28;20113;-73
2021/08/11 04:30:19;;;;;;;10.93;7.75;;;17.70;99.90;;;;;;4137419;28;20052;-73
2021/08/11 04:32:20;;;;;;;12.73;8.95;;;17.70;99.90;;;;;;4141691;28;20092;-73
2021/08/11 04:34:20;;;;;;;12.55;8.25;;;17.70;99.90;;;;;;4138550;28;20498;-74
2021/08/11 04:36:21;;;;;;;13.10;8.43;;;17.70;99.90;;;;;;4135019;28;20646;-73
2021/08/11 04:38:21;;;;;;;13.73;8.98;;;17.80;99.90;;;;;;4133186;28;20070;-73
2021/08/11 04:40:22;;;;;;;14.63;9.48;;;17.80;99.90;;;;;;4135475;28;20033;-73
2021/08/11 04:42:23;;;;;;;14.80;9.27;;;17.80;99.90;;;;;;4140209;28;20476;-73
2021/08/11 04:44:23;;;;;;;12.50;8.68;;;17.80;99.90;;;;;;4140724;28;20366;-74
2021/08/11 04:46:24;;;;;;;14.35;9.38;;;17.90;99.90;;;;;;4142283;28;20034;-73
2021/08/11 04:48:25;;;;;;;15.40;9.82;;;17.90;99.90;;;;;;4142839;28;20564;-73
2021/08/11 04:50:25;;;;;;;17.83;9.70;;;17.90;99.90;;;;;;4132673;28;20046;-73
2021/08/11 04:52:26;;;;;;;14.10;9.05;;;18.00;99.90;;;;;;4136037;28;20119;-73
2021/08/11 04:54:26;;;;;;;15.90;9.38;;;18.00;99.90;;;;;;4142773;28;20036;-74
2021/08/11 04:56:27;;;;;;;20.77;12.05;;;18.00;99.90;;;;;;4140528;28;20042;-73
2021/08/11 04:58:29;;;;;;;18.75;10.75;;;18.00;99.90;;;;;;4141932;28;20057;-73
2021/08/11 05:00:30;;;;;;;19.30;10.32;;;18.00;99.90;;;;;;4139460;28;20383;-74
2021/08/11 05:02:32;;;;;;;21.40;10.68;;;18.00;99.90;;;;;;4173408;28;20037;-73
2021/08/11 05:04:33;;;;;;;17.70;9.80;;;18.00;99.90;;;;;;4145685;28;20037;-73
2021/08/11 05:06:33;;;;;;;19.20;9.32;;;18.00;99.90;;;;;;4137212;28;20442;-73
2021/08/11 05:08:38;;;;;;;17.15;8.48;;;17.90;99.90;;;;;;4143882;28;20113;-74
2021/08/11 05:10:39;;;;;;;20.10;9.82;;;17.90;99.90;;;;;;4144466;28;20040;-73
2021/08/11 05:12:39;;;;;;;19.33;9.13;;;17.90;99.90;;;;;;4144051;28;20037;-73
2021/08/11 05:14:40;;;;;;;19.40;9.60;;;17.90;99.90;;;;;;4145529;28;20498;-73
2021/08/11 05:16:41;;;;;;;17.90;9.15;;;17.90;99.90;;;;;;4143445;28;20072;-73
2021/08/11 05:18:41;;;;;;;19.50;10.82;;;17.90;99.90;;;;;;4144686;28;20041;-73
2021/08/11 05:20:42;;;;;;;20.75;10.75;;;18.00;99.90;;;;;;4143606;28;20456;-73
2021/08/11 05:22:42;;;;;;;19.35;10.63;;;18.00;99.90;;;;;;4129549;28;20286;-74
2021/08/11 05:24:43;;;;;;;18.90;9.65;;;18.00;99.90;;;;;;4151848;28;20057;-73
2021/08/11 05:26:45;;;;;;;18.83;10.23;;;18.00;99.90;;;;;;4143159;28;20052;-72
2021/08/11 05:28:46;;;;;;;21.70;11.05;;;18.00;99.90;;;;;;4143096;28;20041;-74
2021/08/11 05:30:47;;;;;;;24.95;12.77;;;18.00;99.90;;;;;;4142640;28;20469;-74
2021/08/11 05:32:48;;;;;;;22.50;11.05;;;18.00;99.90;;;;;;4143616;28;20061;-73
2021/08/11 05:34:48;;;;;;;20.85;11.55;;;18.10;99.90;;;;;;4143328;28;20045;-74
2021/08/11 05:36:49;;;;;;;24.65;12.23;;;18.10;99.90;;;;;;4144623;28;20034;-74
2021/08/11 05:38:49;;;;;;;23.23;10.95;;;18.10;99.90;;;;;;4144714;28;20038;-73
2021/08/11 05:40:50;;;;;;;15.93;10.13;;;18.10;99.90;;;;;;4143406;28;20529;-73
2021/08/11 05:42:51;;;;;;;16.42;9.23;;;18.00;99.90;;;;;;4143079;28;20037;-73
2021/08/11 05:44:51;;;;;;;16.55;8.95;;;18.10;99.90;;;;;;4144855;28;20537;-73
2021/08/11 05:46:52;;;;;;;13.52;8.55;;;18.10;99.90;;;;;;4144754;28;20082;-73
2021/08/11 05:48:52;;;;;;;14.70;9.13;;;18.10;99.90;;;;;;4144647;28;20060;-73
2021/08/11 05:50:53;;;;;;;14.15;8.40;;;18.10;99.90;;;;;;4142994;28;20045;-74
2021/08/11 05:52:53;;;;;;;12.18;7.50;;;18.10;99.90;;;;;;4142458;28;20518;-73
2021/08/11 05:54:54;;;;;;;11.20;8.18;;;18.00;99.90;;;;;;4143267;28;20046;-73
2021/08/11 05:56:55;;;;;;;13.07;8.80;;;18.00;99.90;;;;;;4145055;28;20044;-73
2021/08/11 05:58:55;;;;;;;11.20;7.63;;;18.00;99.90;;;;;;4144538;28;20033;-73
2021/08/11 06:00:56;;;;;;;10.40;7.65;;;18.00;99.90;;;;;;4144787;28;20033;-74
2021/08/11 06:02:57;;;;;;;13.13;8.43;;;18.10;99.90;;;;;;4144459;28;20030;-73
2021/08/11 06:04:57;;;;;;;13.10;8.13;;;18.10;99.90;;;;;;4142834;28;20042;-73
2021/08/11 06:06:58;;;;;;;10.10;7.43;;;18.10;99.90;;;;;;4142745;28;20042;-74
2021/08/11 06:08:59;;;;;;;11.63;7.05;;;18.10;99.90;;;;;;4142829;28;20030;-73
2021/08/11 06:10:59;;;;;;;17.95;7.40;;;18.20;99.90;;;;;;4141500;28;20388;-73
2021/08/11 06:13:00;;;;;;;10.45;7.90;;;18.20;99.90;;;;;;4144168;28;20117;-73
2021/08/11 06:15:01;;;;;;;13.18;7.70;;;18.20;99.90;;;;;;4143232;28;20049;-73
2021/08/11 06:17:02;;;;;;;9.23;7.03;;;18.20;99.90;;;;;;4144482;28;20038;-74
2021/08/11 06:19:03;;;;;;;11.10;7.28;;;18.30;99.90;;;;;;4175459;28;20044;-73
2021/08/11 06:21:04;;;;;;;10.27;7.20;;;18.30;99.90;;;;;;4143193;28;20704;-74
2021/08/11 06:23:05;;;;;;;10.25;7.40;;;18.30;99.90;;;;;;4143832;28;20030;-74
2021/08/11 06:25:06;;;;;;;10.07;7.30;;;18.30;99.90;;;;;;4144004;28;20084;-73
2021/08/11 06:27:07;;;;;;;11.13;8.65;;;18.30;99.90;;;;;;4125942;28;20491;-74
2021/08/11 06:29:08;;;;;;;10.90;7.95;;;18.30;99.90;;;;;;4143924;28;20036;-74
2021/08/11 06:31:09;;;;;;;10.20;7.60;;;18.30;99.90;;;;;;4137205;28;20445;-73
2021/08/11 06:33:09;;;;;;;14.45;9.15;;;18.30;99.90;;;;;;4141895;28;20486;-73
2021/08/11 06:35:11;;;;;;;13.70;9.85;;;18.30;99.90;;;;;;4142742;28;20453;-73
2021/08/11 06:37:12;;;;;;;14.13;9.23;;;18.30;99.90;;;;;;4140553;28;20053;-73
2021/08/11 06:39:12;;;;;;;11.85;9.00;;;18.30;99.90;;;;;;4142423;28;20022;-73
2021/08/11 06:41:15;;;;;;;11.38;8.60;;;18.30;99.90;;;;;;4142562;28;20732;-73
2021/08/11 06:43:18;;;;;;;16.60;10.25;;;18.40;99.90;;;;;;4176383;28;20453;-73
2021/08/11 06:45:18;;;;;;;15.70;10.20;;;18.40;99.90;;;;;;4174707;28;20025;-73
2021/08/11 06:47:19;;;;;;;19.92;12.50;;;18.40;99.90;;;;;;4137921;28;20045;-73
2021/08/11 06:49:19;;;;;;;27.65;17.58;;;18.40;99.90;;;;;;4141451;28;20030;-73
2021/08/11 06:51:20;;;;;;;20.85;13.85;;;18.40;99.90;;;;;;4142392;28;20030;-74
2021/08/11 06:53:21;;;;;;;26.15;15.80;;;18.40;99.90;;;;;;4137835;28;20170;-74
2021/08/11 06:55:21;;;;;;;20.80;13.45;;;18.50;99.90;;;;;;4140361;28;20026;-73
2021/08/11 06:57:22;;;;;;;23.95;15.10;;;18.40;99.90;;;;;;4143511;28;20038;-73
2021/08/11 06:59:22;;;;;;;23.20;14.43;;;18.50;99.90;;;;;;4142205;28;20112;-73
2021/08/11 07:01:23;;;;;;;20.42;13.48;;;18.50;99.90;;;;;;4141357;28;20120;-73
2021/08/11 07:03:24;;;;;;;27.00;16.30;;;18.50;99.90;;;;;;4143697;28;20105;-74
2021/08/11 07:05:24;;;;;;;21.83;14.38;;;18.50;99.90;;;;;;4139916;28;20038;-73
2021/08/11 07:07:25;;;;;;;21.05;13.52;;;18.50;99.90;;;;;;4140709;28;20522;-74
2021/08/11 07:09:26;;;;;;;21.05;13.52;;;18.50;99.90;;;;;;4143242;28;20113;-73
2021/08/11 07:11:27;;;;;;;23.38;14.48;;;18.60;99.90;;;;;;4119209;28;20052;-73
2021/08/11 07:13:28;;;;;;;21.65;14.68;;;18.60;99.90;;;;;;4140805;28;20148;-73
2021/08/11 07:15:29;;;;;;;18.70;13.05;;;18.60;99.90;;;;;;4135766;28;20030;-73
2021/08/11 07:17:29;;;;;;;19.27;13.50;;;18.70;99.90;;;;;;4138367;28;20088;-74
2021/08/11 07:19:30;;;;;;;18.08;12.95;;;18.70;99.90;;;;;;4152963;28;20934;-73
2021/08/11 07:21:31;;;;;;;19.35;13.07;;;18.70;99.90;;;;;;4138228;28;20081;-74
2021/08/11 07:23:31;;;;;;;18.52;12.75;;;18.70;99.90;;;;;;4139207;28;20044;-73
2021/08/11 07:25:32;;;;;;;22.10;14.50;;;18.80;99.90;;;;;;4136084;28;20120;-73
2021/08/11 07:27:33;;;;;;;23.02;14.98;;;18.80;99.90;;;;;;4137290;28;20038;-73
2021/08/11 07:29:33;;;;;;;19.65;13.27;;;18.80;99.90;;;;;;4138431;28;20040;-73
2021/08/11 07:31:34;;;;;;;19.90;13.45;;;18.80;99.90;;;;;;4138409;28;20034;-74
2021/08/11 07:33:34;;;;;;;18.42;13.65;;;18.90;99.90;;;;;;4136620;28;20867;-73
2021/08/11 07:35:36;;;;;;;19.60;14.45;;;18.90;99.90;;;;;;4137395;28;20120;-73
2021/08/11 07:37:51;;;;;;;22.17;15.23;;;18.90;99.90;;;;;;4149521;28;20034;-74
2021/08/11 07:39:54;;;;;;;21.55;15.07;;;18.90;99.90;;;;;;4148381;28;20036;-73
2021/08/11 07:41:54;;;;;;;25.98;16.48;;;18.90;99.90;;;;;;4142969;28;20037;-73
2021/08/11 07:43:55;;;;;;;25.13;17.67;;;18.90;99.90;;;;;;4143936;28;20060;-74
2021/08/11 07:45:55;;;;;;;24.00;16.85;;;18.90;99.90;;;;;;4167601;28;20141;-74
2021/08/11 07:47:57;;;;;;;25.75;17.60;;;18.90;99.90;;;;;;4155343;28;20053;-74
2021/08/11 07:49:58;;;;;;;25.60;18.38;;;19.00;99.90;;;;;;4153862;28;20037;-74
2021/08/11 07:51:58;;;;;;;25.63;18.15;;;19.00;99.90;;;;;;4126654;28;20040;-73
2021/08/11 07:53:59;;;;;;;26.05;19.38;;;19.00;99.90;;;;;;4139154;28;20417;-73
2021/08/11 07:56:00;;;;;;;28.17;20.35;;;18.90;99.90;;;;;;4141582;28;20363;-73
2021/08/11 07:58:00;;;;;;;30.38;21.55;;;18.90;99.90;;;;;;4142361;28;20112;-74
2021/08/11 08:00:01;;;;;;;26.35;19.45;;;19.00;99.90;;;;;;4141757;28;20034;-74
2021/08/11 08:02:08;;;;;;;23.70;18.08;;;19.00;99.90;;;;;;4142568;28;20045;-74
2021/08/11 08:04:08;;;;;;;30.00;21.27;;;19.00;99.90;;;;;;4142209;28;20532;-74
2021/08/11 08:06:09;;;;;;;28.40;20.42;;;19.00;99.90;;;;;;4137536;28;20045;-74
2021/08/11 08:08:09;;;;;;;29.73;20.83;;;19.00;99.90;;;;;;4142352;28;20073;-74
2021/08/11 08:10:11;;;;;;;26.25;18.05;;;19.00;99.90;;;;;;4142512;28;20030;-74
2021/08/11 08:12:11;;;;;;;21.25;16.70;;;19.00;99.90;;;;;;4142220;28;20022;-73
2021/08/11 08:14:12;;;;;;;22.60;16.13;;;19.00;99.90;;;;;;4142877;28;20026;-73
2021/08/11 08:16:14;;;;;;;25.48;15.88;;;19.00;99.90;;;;;;4140829;28;20100;-73
2021/08/11 08:18:21;;;;;;;23.02;16.63;;;19.00;99.90;;;;;;4158257;28;20075;-73
2021/08/11 08:20:21;;;;;;;17.65;13.82;;;19.10;99.90;;;;;;4174039;28;20041;-73
2021/08/11 08:22:22;;;;;;;19.58;14.10;;;19.20;99.90;;;;;;4155266;28;20414;-73
2021/08/11 08:24:23;;;;;;;21.35;15.65;;;19.20;99.90;;;;;;4141282;28;20041;-73
2021/08/11 08:26:23;;;;;;;18.90;14.13;;;19.20;99.90;;;;;;4142271;28;20123;-73
2021/08/11 08:28:24;;;;;;;20.05;14.90;;;19.30;99.90;;;;;;4142364;28;20101;-73
2021/08/11 08:30:24;;;;;;;21.63;16.30;;;19.30;99.90;;;;;;4142052;28;20398;-73
2021/08/11 08:32:27;;;;;;;20.65;15.55;;;19.30;99.90;;;;;;4141202;28;20062;-73
2021/08/11 08:34:28;;;;;;;19.98;15.65;;;19.40;99.90;;;;;;4171904;28;20088;-73
2021/08/11 08:36:30;;;;;;;23.60;14.65;;;19.40;99.90;;;;;;4152644;28;20041;-73
2021/08/11 08:38:31;;;;;;;20.30;14.65;;;19.40;99.90;;;;;;4164291;28;20037;-73
2021/08/11 08:40:36;;;;;;;20.80;15.50;;;19.50;99.90;;;;;;4177217;28;20033;-73
2021/08/11 08:42:39;;;;;;;19.23;14.27;;;19.50;99.90;;;;;;4144127;28;20031;-73
2021/08/11 08:44:39;;;;;;;18.13;14.07;;;19.60;99.90;;;;;;4145684;28;20026;-73
2021/08/11 08:46:43;;;;;;;19.50;14.98;;;19.60;99.90;;;;;;4145465;28;20108;-73
2021/08/11 08:48:44;;;;;;;17.10;13.57;;;19.70;99.90;;;;;;4148727;28;20080;-73
2021/08/11 08:50:49;;;;;;;18.88;13.40;;;19.70;99.90;;;;;;4144456;28;20121;-73
2021/08/11 08:52:50;;;;;;;15.88;12.05;;;19.80;99.90;;;;;;4145585;28;20413;-74
2021/08/11 08:54:52;;;;;;;15.38;12.68;;;19.90;99.90;;;;;;4143638;28;20062;-73
2021/08/11 08:56:52;;;;;;;17.33;11.60;;;20.00;99.90;;;;;;4160274;28;20037;-73
2021/08/11 08:58:53;;;;;;;21.85;13.68;;;20.00;99.90;;;;;;4159668;28;20034;-74
2021/08/11 09:00:53;;;;;;;20.58;14.07;;;20.10;99.90;;;;;;4155546;28;20121;-73
2021/08/11 09:02:54;;;;;;;12.80;10.15;;;20.10;99.90;;;;;;4145031;28;20418;-73
2021/08/11 09:04:55;;;;;;;13.57;9.80;;;20.20;99.90;;;;;;4142636;28;20116;-74
2021/08/11 09:06:57;;;;;;;15.10;10.68;;;20.30;99.90;;;;;;4143648;28;20034;-72
2021/08/11 09:09:03;;;;;;;14.30;9.48;;;20.40;99.90;;;;;;4145583;28;20079;-74
2021/08/11 09:11:15;;;;;;;14.05;10.18;;;20.50;99.90;;;;;;4142240;28;20038;-74
2021/08/11 09:13:20;;;;;;;13.90;10.38;;;20.50;99.90;;;;;;4140330;28;20490;-74
2021/08/11 09:15:28;;;;;;;13.75;9.00;;;20.60;99.90;;;;;;4145328;28;20065;-74
2021/08/11 09:17:35;;;;;;;13.30;9.85;;;20.70;99.90;;;;;;4145827;28;20034;-74
2021/08/11 09:19:46;;;;;;;14.43;10.02;;;20.80;99.90;;;;;;4144624;28;20575;-74
2021/08/11 09:22:00;;;;;;;12.30;9.32;;;20.90;99.90;;;;;;4142936;28;20042;-73
2021/08/11 09:24:00;;;;;;;12.65;8.57;;;20.90;99.90;;;;;;4142969;28;20041;-73
2021/08/11 09:26:03;;;;;;;12.70;9.13;;;21.10;99.90;;;;;;4140729;28;20542;-73
2021/08/11 09:28:15;;;;;;;;;;;21.10;99.90;;;;;;4144142;28;20042;-73
2021/08/11 09:30:21;;;;;;;8.77;7.03;;;21.10;99.90;;;;;;4141395;28;20573;-73
2021/08/11 09:32:22;;;;;;;16.80;9.68;;;21.20;99.90;;;;;;4144252;28;20068;-73
2021/08/11 09:34:22;;;;;;;10.43;7.93;;;21.20;99.90;;;;;;4142621;28;20037;-73
2021/08/11 09:36:25;;;;;;;9.73;7.20;;;21.20;99.90;;;;;;4144484;28;20103;-74
2021/08/11 09:38:25;;;;;;;9.18;5.93;;;21.30;99.90;;;;;;4144736;28;20033;-73
2021/08/11 09:40:28;;;;;;;10.07;6.60;;;21.40;99.90;;;;;;4144469;28;20026;-73
2021/08/11 09:42:29;;;;;;;11.88;7.38;;;21.40;99.90;;;;;;4144138;28;20045;-73
2021/08/11 09:44:30;;;;;;;8.55;6.30;;;21.40;99.90;;;;;;4142176;28;20093;-74
2021/08/11 09:46:31;;;;;;;10.43;7.40;;;21.50;99.90;;;;;;4144617;28;20030;-74
2021/08/11 09:48:42;;;;;;;12.95;8.18;;;21.50;99.90;;;;;;4142035;28;20184;-73
2021/08/11 09:50:47;;;;;;;9.15;7.40;;;21.60;99.90;;;;;;4175096;28;20524;-74
2021/08/11 09:52:50;;;;;;;7.53;6.25;;;21.60;99.90;;;;;;4175788;28;20033;-74
2021/08/11 09:54:59;;;;;;;11.10;8.00;;;21.70;99.90;;;;;;4141674;28;20422;-73
2021/08/11 09:56:59;;;;;;;9.13;6.93;;;21.80;99.90;;;;;;4143260;28;20047;-73
2021/08/11 09:59:02;;;;;;;9.75;7.05;;;21.80;99.90;;;;;;4144391;28;20040;-74
2021/08/11 10:01:04;;;;;;;;;;;21.90;99.90;;;;;;4142882;28;20119;-74
2021/08/11 10:03:04;;;;;;;;;;;22.00;99.90;;;;;;4144415;28;19940;-74
2021/08/11 10:05:05;;;;;;;;;;;22.00;99.90;;;;;;4143797;28;19921;-74
2021/08/11 10:07:08;;;;;;;;;;;22.00;99.90;;;;;;4145118;28;19909;-74
2021/08/11 10:09:26;;;;;;;;;;;22.10;99.90;;;;;;4144131;28;20609;-74
2021/08/11 10:11:36;;;;;;;;;;;22.10;99.90;;;;;;4145812;28;20259;-74
2021/08/11 10:13:39;;;;;;;;;;;22.10;99.90;;;;;;4148079;28;19913;-74
2021/08/11 10:15:40;;;;;;;;;;;22.10;99.90;;;;;;4148887;28;19959;-74
2021/08/11 10:17:42;;;;;;;;;;;22.20;99.90;;;;;;4142273;28;19948;-73
2021/08/11 10:19:44;;;;;;;;;;;22.10;99.90;;;;;;4145088;28;19916;-74
2021/08/11 10:21:48;;;;;;;;;;;22.20;99.90;;;;;;4144755;28;19945;-74
2021/08/11 10:23:49;;;;;;;;;;;22.20;99.90;;;;;;4154673;28;19913;-74
2021/08/11 10:25:49;;;;;;;;;;;22.20;99.90;;;;;;4147908;28;19913;-74
2021/08/11 10:27:50;;;;;;;;;;;22.10;99.90;;;;;;4161182;28;19916;-74
2021/08/11 10:29:51;;;;;;;;;;;22.10;99.90;;;;;;4160204;28;19917;-74
2021/08/11 10:31:54;;;;;;;;;;;22.20;99.90;;;;;;4154706;28;19931;-75
2021/08/11 10:33:54;;;;;;;;;;;22.20;99.90;;;;;;4140896;28;19928;-75
2021/08/11 10:35:56;;;;;;;;;;;22.30;99.90;;;;;;4141995;28;19918;-74